Time;durP1;ratioP1;P1;durP2;ratioP2;P2;SDS_P1;SDS_P2;PMS_P1;PMS_P2;Temp;Humidity;BMP_temperature;BMP_pressure;BME280_temperature;BME280_humidity;BME280_pressure;Samples;Min_cycle;Max_cycle;Signal;HPM_P1;HPM_P2
2023/08/15 00:01:14;;;;;;;9.53;3.30;;;20.40;99.90;;;;;;5035189;28;20230;-78
2023/08/15 00:03:39;;;;;;;5.40;3.50;;;20.30;99.90;;;;;;5035740;28;20180;-77
2023/08/15 00:06:05;;;;;;;6.70;3.87;;;20.30;99.90;;;;;;5041427;28;20191;-78
2023/08/15 00:08:31;;;;;;;6.10;3.57;;;20.30;99.90;;;;;;5039300;28;20560;-78
2023/08/15 00:10:56;;;;;;;6.80;3.50;;;20.20;99.90;;;;;;5035389;28;20203;-77
2023/08/15 00:13:22;;;;;;;7.10;4.47;;;20.20;99.90;;;;;;5036589;28;20227;-78
2023/08/15 00:15:47;;;;;;;5.80;3.73;;;20.20;99.90;;;;;;5034734;28;20204;-77
2023/08/15 00:18:13;;;;;;;8.03;3.80;;;20.20;99.90;;;;;;5033995;28;20180;-77
2023/08/15 00:20:38;;;;;;;6.50;3.93;;;20.20;99.90;;;;;;5050684;28;20283;-78
2023/08/15 00:23:04;;;;;;;5.03;3.30;;;20.10;99.90;;;;;;5034412;28;20180;-78
2023/08/15 00:25:30;;;;;;;7.07;3.37;;;20.20;99.90;;;;;;5042081;28;20196;-78
2023/08/15 00:27:55;;;;;;;8.03;4.47;;;20.10;99.90;;;;;;5054698;28;20187;-78
2023/08/15 00:30:21;;;;;;;7.30;3.30;;;20.10;99.90;;;;;;5055467;28;20172;-78
2023/08/15 00:32:46;;;;;;;5.73;3.63;;;20.00;99.90;;;;;;5055500;28;20172;-77
2023/08/15 00:35:12;;;;;;;5.93;3.53;;;20.00;99.90;;;;;;5055310;28;20203;-78
2023/08/15 00:37:38;;;;;;;5.77;3.40;;;20.00;99.90;;;;;;5054638;28;20172;-77
2023/08/15 00:40:04;;;;;;;10.23;3.77;;;20.00;99.90;;;;;;5055623;28;20168;-78
2023/08/15 00:42:30;;;;;;;7.63;3.53;;;19.90;99.90;;;;;;5054012;28;20210;-78
2023/08/15 00:44:56;;;;;;;6.53;3.17;;;19.70;99.90;;;;;;5050515;28;20180;-77
2023/08/15 00:47:23;;;;;;;6.23;3.50;;;19.80;99.90;;;;;;5052726;28;20183;-78
2023/08/15 00:49:49;;;;;;;7.77;3.80;;;19.90;99.90;;;;;;5055336;28;20179;-78
2023/08/15 00:52:16;;;;;;;8.57;3.63;;;19.80;99.90;;;;;;5054482;28;20191;-78
2023/08/15 00:54:45;;;;;;;6.57;3.77;;;19.80;99.90;;;;;;5051951;28;20378;-78
2023/08/15 00:57:11;;;;;;;4.47;3.60;;;19.80;99.90;;;;;;5036311;28;20184;-77
2023/08/15 00:59:37;;;;;;;6.13;3.60;;;20.00;99.90;;;;;;5039049;28;20172;-78
2023/08/15 01:02:03;;;;;;;5.43;3.87;;;19.90;99.90;;;;;;5037058;28;20211;-77
2023/08/15 01:04:30;;;;;;;3.67;3.10;;;19.80;99.90;;;;;;5035869;28;20616;-78
2023/08/15 01:06:56;;;;;;;9.73;3.70;;;19.80;99.90;;;;;;5038831;28;20180;-77
2023/08/15 01:09:21;;;;;;;6.33;3.53;;;19.80;99.90;;;;;;5054224;28;20183;-78
2023/08/15 01:12:01;;;;;;;6.80;3.60;;;19.70;99.90;;;;;;5055442;28;20195;-77
2023/08/15 01:14:33;;;;;;;6.97;3.40;;;19.70;99.90;;;;;;5051764;28;20329;-77
2023/08/15 01:17:00;;;;;;;5.43;3.60;;;19.80;99.90;;;;;;5054905;28;20242;-78
2023/08/15 01:19:36;;;;;;;6.90;3.63;;;19.60;99.90;;;;;;5053827;28;20598;-77
2023/08/15 01:22:08;;;;;;;8.20;3.87;;;19.70;99.90;;;;;;5053137;28;20195;-78
2023/08/15 01:24:34;;;;;;;8.77;4.00;;;19.80;99.90;;;;;;5045909;28;20191;-77
2023/08/15 01:27:00;;;;;;;4.77;3.80;;;19.80;99.90;;;;;;5033306;28;20539;-77
2023/08/15 01:29:25;;;;;;;8.27;4.03;;;19.80;99.90;;;;;;5033595;28;20183;-78
2023/08/15 01:32:10;;;;;;;5.57;3.80;;;19.70;99.90;;;;;;5035023;28;20337;-78
2023/08/15 01:34:42;;;;;;;6.27;3.70;;;19.80;99.90;;;;;;5033554;28;20742;-77
2023/08/15 01:37:15;;;;;;;12.10;3.90;;;19.80;99.90;;;;;;5033976;28;20168;-77
2023/08/15 01:39:42;;;;;;;9.90;3.43;;;19.60;99.90;;;;;;5034298;28;20264;-77
2023/08/15 01:42:10;;;;;;;4.20;3.80;;;19.80;99.90;;;;;;5033290;28;20274;-77
2023/08/15 01:44:37;;;;;;;5.83;3.70;;;19.80;99.90;;;;;;5036046;28;20565;-78
2023/08/15 01:47:02;;;;;;;6.50;3.67;;;19.80;99.90;;;;;;5035202;28;20655;-77
2023/08/15 01:49:28;;;;;;;8.87;3.60;;;19.80;99.90;;;;;;5050645;28;20270;-78
2023/08/15 01:51:54;;;;;;;7.53;3.67;;;19.70;99.90;;;;;;5034189;28;20699;-78
2023/08/15 01:54:20;;;;;;;7.40;4.23;;;19.70;99.90;;;;;;5049681;28;20294;-78
2023/08/15 01:56:45;;;;;;;6.83;3.93;;;19.60;99.90;;;;;;5052211;28;20183;-77
2023/08/15 01:59:11;;;;;;;6.30;3.60;;;19.60;99.90;;;;;;5052810;28;20186;-77
2023/08/15 02:01:36;;;;;;;6.10;3.67;;;19.70;99.90;;;;;;5052885;28;20188;-78
2023/08/15 02:04:02;;;;;;;5.17;4.00;;;19.70;99.90;;;;;;5052618;28;20183;-78
2023/08/15 02:06:28;;;;;;;4.93;3.03;;;19.70;99.90;;;;;;5036928;28;20184;-77
2023/08/15 02:08:53;;;;;;;4.40;3.83;;;19.80;99.90;;;;;;5033868;28;20172;-78
2023/08/15 02:11:19;;;;;;;5.47;3.80;;;19.70;99.90;;;;;;5034427;28;20656;-78
2023/08/15 02:13:44;;;;;;;5.70;3.77;;;19.70;99.90;;;;;;5033618;28;20176;-78
2023/08/15 02:16:10;;;;;;;7.57;3.87;;;19.80;99.90;;;;;;5050896;28;20226;-77
2023/08/15 02:18:35;;;;;;;4.43;3.90;;;19.80;99.90;;;;;;5057169;28;20171;-78
2023/08/15 02:21:01;;;;;;;4.67;3.60;;;19.80;99.90;;;;;;5057967;28;20191;-78
2023/08/15 02:23:26;;;;;;;8.90;4.47;;;19.80;99.90;;;;;;5056341;28;20259;-78
2023/08/15 02:25:52;;;;;;;6.57;4.30;;;19.90;99.90;;;;;;5045444;28;20556;-77
2023/08/15 02:28:17;;;;;;;11.53;4.53;;;20.00;99.90;;;;;;5036958;28;20199;-77
2023/08/15 02:30:43;;;;;;;7.00;4.53;;;19.70;99.90;;;;;;5037855;28;20238;-77
2023/08/15 02:33:09;;;;;;;5.63;4.37;;;19.90;99.90;;;;;;5038097;28;20176;-78
2023/08/15 02:35:39;;;;;;;9.90;4.70;;;19.90;99.90;;;;;;5042196;28;20230;-78
2023/08/15 02:38:05;;;;;;;5.90;4.60;;;19.90;99.90;;;;;;5038755;28;20511;-78
2023/08/15 02:40:30;;;;;;;6.30;4.57;;;20.00;99.90;;;;;;5036578;28;20197;-77
2023/08/15 02:42:56;;;;;;;8.60;4.60;;;20.00;99.90;;;;;;5037578;28;20179;-78
2023/08/15 02:45:21;;;;;;;5.83;4.13;;;20.00;99.90;;;;;;5039867;28;20536;-78
2023/08/15 02:47:47;;;;;;;6.90;5.10;;;20.10;99.90;;;;;;5053947;28;20218;-78
2023/08/15 02:50:14;;;;;;;6.27;5.40;;;20.10;99.90;;;;;;5038175;28;20698;-77
2023/08/15 02:52:40;;;;;;;5.97;4.70;;;20.20;99.90;;;;;;5037438;28;20196;-77
2023/08/15 02:55:06;;;;;;;6.20;4.97;;;20.10;99.90;;;;;;5037570;28;20703;-77
2023/08/15 02:57:31;;;;;;;8.00;5.53;;;20.20;99.90;;;;;;5036581;28;20575;-77
2023/08/15 02:59:57;;;;;;;8.80;6.07;;;20.30;99.90;;;;;;5036442;28;20172;-78
2023/08/15 03:02:23;;;;;;;7.17;5.40;;;20.40;99.90;;;;;;5048043;28;20579;-77
2023/08/15 03:04:49;;;;;;;6.50;5.47;;;20.40;99.90;;;;;;5049600;28;20184;-77
2023/08/15 03:07:14;;;;;;;8.20;5.80;;;20.50;99.90;;;;;;5053922;28;20274;-77
2023/08/15 03:09:40;;;;;;;8.27;5.60;;;20.50;99.90;;;;;;5056125;28;20178;-77
2023/08/15 03:12:06;;;;;;;6.83;5.03;;;20.60;99.90;;;;;;5054498;28;20204;-77
2023/08/15 03:14:31;;;;;;;7.87;4.87;;;20.50;99.90;;;;;;5059440;28;20206;-77
2023/08/15 03:16:57;;;;;;;9.77;5.53;;;20.50;99.90;;;;;;5056204;28;20223;-77
2023/08/15 03:19:22;;;;;;;9.00;5.73;;;20.50;99.90;;;;;;5054962;28;20168;-77
2023/08/15 03:21:48;;;;;;;5.67;5.13;;;20.60;99.90;;;;;;5050169;28;20623;-77
2023/08/15 03:24:15;;;;;;;12.03;5.43;;;20.40;99.90;;;;;;5035821;28;20227;-77
2023/08/15 03:26:42;;;;;;;11.10;5.90;;;20.50;99.90;;;;;;5034661;28;20664;-77
2023/08/15 03:29:07;;;;;;;9.90;5.57;;;20.60;99.90;;;;;;5037002;28;20184;-77
2023/08/15 03:31:33;;;;;;;10.00;5.27;;;20.60;99.90;;;;;;5038617;28;20199;-77
2023/08/15 03:33:59;;;;;;;9.20;5.50;;;20.60;99.90;;;;;;5055955;28;20190;-78
2023/08/15 03:36:25;;;;;;;14.47;5.87;;;20.50;99.90;;;;;;5057280;28;20231;-77
2023/08/15 03:38:50;;;;;;;10.50;5.73;;;20.60;99.90;;;;;;5055702;28;20198;-77
2023/08/15 03:41:16;;;;;;;8.40;5.23;;;20.60;99.90;;;;;;5056373;28;20726;-78
2023/08/15 03:43:41;;;;;;;7.60;5.33;;;20.50;99.90;;;;;;5038107;28;20235;-77
2023/08/15 03:46:07;;;;;;;10.27;5.47;;;20.50;99.90;;;;;;5037279;28;20188;-77
2023/08/15 03:48:33;;;;;;;9.33;5.23;;;20.50;99.90;;;;;;5035693;28;20184;-77
2023/08/15 03:51:00;;;;;;;9.77;5.53;;;20.40;99.90;;;;;;5036237;28;20196;-78
2023/08/15 03:53:26;;;;;;;7.17;5.00;;;20.50;99.90;;;;;;5035651;28;20207;-78
2023/08/15 03:55:52;;;;;;;10.43;5.30;;;20.60;99.90;;;;;;5035618;28;20215;-77
2023/08/15 03:58:19;;;;;;;10.03;5.80;;;20.60;99.90;;;;;;5037222;28;20192;-77
2023/08/15 04:00:45;;;;;;;7.10;5.47;;;20.40;99.90;;;;;;5035446;28;20246;-77
2023/08/15 04:03:11;;;;;;;11.73;5.13;;;20.60;99.90;;;;;;5034824;28;20181;-78
2023/08/15 04:05:37;;;;;;;7.77;5.13;;;20.60;99.90;;;;;;5035013;28;20184;-78
2023/08/15 04:08:03;;;;;;;9.43;4.60;;;20.60;99.90;;;;;;5034870;28;20180;-77
2023/08/15 04:10:29;;;;;;;9.60;4.53;;;20.50;99.90;;;;;;5034369;28;20184;-78
2023/08/15 04:12:55;;;;;;;7.87;4.67;;;20.50;99.90;;;;;;5035537;28;20270;-78
2023/08/15 04:15:21;;;;;;;6.87;4.47;;;20.40;99.90;;;;;;5043924;28;20683;-78
2023/08/15 04:17:46;;;;;;;8.83;4.77;;;20.40;99.90;;;;;;5057056;28;20176;-78
2023/08/15 04:20:12;;;;;;;9.73;4.67;;;20.40;99.90;;;;;;5057480;28;20209;-78
2023/08/15 04:22:38;;;;;;;12.27;6.00;;;20.40;99.90;;;;;;5060086;28;20285;-78
2023/08/15 04:25:06;;;;;;;9.47;4.83;;;20.30;99.90;;;;;;5058540;28;20706;-79
2023/08/15 04:27:32;;;;;;;7.63;4.37;;;20.30;99.90;;;;;;5062595;28;20194;-79
2023/08/15 04:29:57;;;;;;;8.60;4.73;;;20.40;99.90;;;;;;5062654;28;20191;-79
2023/08/15 04:32:23;;;;;;;10.43;4.50;;;20.30;99.90;;;;;;5062926;28;20196;-79
2023/08/15 04:34:49;;;;;;;10.23;4.70;;;20.20;99.90;;;;;;5061310;28;20274;-78
2023/08/15 04:37:14;;;;;;;7.67;4.77;;;20.20;99.90;;;;;;5060995;28;20180;-78
2023/08/15 04:39:40;;;;;;;7.97;5.03;;;20.10;99.90;;;;;;5063456;28;20585;-79
2023/08/15 04:42:05;;;;;;;7.27;4.77;;;20.20;99.90;;;;;;5062824;28;20195;-79
2023/08/15 04:44:31;;;;;;;7.03;4.67;;;20.20;99.90;;;;;;5061840;28;20175;-79
2023/08/15 04:46:57;;;;;;;7.87;4.47;;;20.30;99.90;;;;;;5044976;28;20634;-79
2023/08/15 04:49:22;;;;;;;8.53;4.90;;;20.10;99.90;;;;;;5042763;28;20234;-77
2023/08/15 04:51:48;;;;;;;10.03;4.80;;;20.40;99.90;;;;;;5043986;28;20280;-78
2023/08/15 04:54:13;;;;;;;6.33;4.67;;;20.10;99.90;;;;;;5059016;28;20632;-78
2023/08/15 04:56:39;;;;;;;10.23;4.20;;;20.30;99.90;;;;;;5043061;28;20667;-78
2023/08/15 04:59:04;;;;;;;9.50;4.37;;;20.10;99.90;;;;;;5042936;28;20643;-78
2023/08/15 05:01:30;;;;;;;9.77;4.80;;;20.20;99.90;;;;;;5043332;28;20188;-78
2023/08/15 05:03:55;;;;;;;7.70;4.70;;;20.20;99.90;;;;;;5042385;28;20209;-78
2023/08/15 05:06:21;;;;;;;8.33;4.40;;;20.20;99.90;;;;;;5048003;28;20695;-78
2023/08/15 05:08:47;;;;;;;8.83;4.40;;;20.20;99.90;;;;;;5059095;28;20214;-78
2023/08/15 05:11:12;;;;;;;6.53;4.47;;;20.30;99.90;;;;;;5063219;28;20200;-78
2023/08/15 05:13:38;;;;;;;9.93;4.80;;;20.20;99.90;;;;;;5063322;28;20179;-78
2023/08/15 05:16:03;;;;;;;5.53;4.20;;;20.10;99.90;;;;;;5050936;28;20287;-78
2023/08/15 05:18:29;;;;;;;6.80;4.60;;;20.10;99.90;;;;;;5041843;28;20279;-78
2023/08/15 05:20:54;;;;;;;9.67;4.57;;;20.10;99.90;;;;;;5043362;28;20219;-78
2023/08/15 05:23:20;;;;;;;7.90;4.33;;;20.10;99.90;;;;;;5050742;28;20172;-78
2023/08/15 05:25:46;;;;;;;7.03;4.30;;;20.10;99.90;;;;;;5054659;28;20181;-78
2023/08/15 05:28:12;;;;;;;6.63;4.70;;;20.10;99.90;;;;;;5050778;28;20200;-78
2023/08/15 05:30:38;;;;;;;6.07;4.60;;;20.30;99.90;;;;;;5041821;28;20308;-78
2023/08/15 05:33:04;;;;;;;7.00;4.70;;;20.10;99.90;;;;;;5041596;28;20226;-78
2023/08/15 05:35:30;;;;;;;10.23;5.13;;;20.10;99.90;;;;;;5042060;28;20619;-78
2023/08/15 05:37:55;;;;;;;9.33;4.77;;;20.00;99.90;;;;;;5042874;28;20169;-78
2023/08/15 05:40:22;;;;;;;8.20;4.60;;;20.10;99.90;;;;;;5040987;28;20176;-78
2023/08/15 05:42:47;;;;;;;11.90;5.30;;;20.10;99.90;;;;;;5040713;28;20168;-77
2023/08/15 05:45:14;;;;;;;7.47;4.40;;;20.10;99.90;;;;;;5042564;28;20189;-78
2023/08/15 05:47:39;;;;;;;10.27;4.70;;;20.00;99.90;;;;;;5060207;28;20709;-78
2023/08/15 05:50:05;;;;;;;8.13;5.57;;;20.00;99.90;;;;;;5059584;28;20179;-78
2023/08/15 05:52:31;;;;;;;8.10;4.97;;;20.10;99.90;;;;;;5059605;28;20199;-78
2023/08/15 05:54:57;;;;;;;9.13;5.80;;;20.10;99.90;;;;;;5058096;28;20227;-78
2023/08/15 05:57:23;;;;;;;12.43;5.93;;;20.20;99.90;;;;;;5059756;28;20179;-78
2023/08/15 05:59:48;;;;;;;9.70;6.00;;;20.10;99.90;;;;;;5062058;28;20187;-78
2023/08/15 06:02:14;;;;;;;6.87;5.50;;;20.10;99.90;;;;;;5059754;28;20192;-78
2023/08/15 06:04:40;;;;;;;9.07;5.60;;;20.20;99.90;;;;;;5057629;28;20192;-78
2023/08/15 06:07:06;;;;;;;11.13;6.60;;;20.20;99.90;;;;;;5059273;28;20682;-78
2023/08/15 06:09:32;;;;;;;9.83;4.17;;;20.00;99.90;;;;;;5061409;28;20176;-78
2023/08/15 06:11:58;;;;;;;6.60;3.37;;;20.00;99.90;;;;;;5059430;28;20206;-78
2023/08/15 06:14:23;;;;;;;5.73;3.17;;;19.90;99.90;;;;;;5061027;28;20590;-79
2023/08/15 06:16:49;;;;;;;4.53;2.60;;;19.60;99.90;;;;;;5059844;28;20215;-77
2023/08/15 06:19:15;;;;;;;5.90;3.10;;;19.70;99.90;;;;;;5058999;28;20271;-78
2023/08/15 06:21:43;;;;;;;6.13;2.93;;;19.70;99.90;;;;;;5053009;28;20215;-77
2023/08/15 06:24:12;;;;;;;6.50;3.13;;;19.60;99.90;;;;;;5038798;28;20260;-78
2023/08/15 06:26:39;;;;;;;11.83;3.23;;;19.60;99.90;;;;;;5038289;28;20180;-78
2023/08/15 06:29:08;;;;;;;6.20;2.67;;;19.60;99.90;;;;;;5038728;28;20184;-78
2023/08/15 06:31:34;;;;;;;6.07;2.47;;;19.80;99.90;;;;;;5038708;28;20184;-78
2023/08/15 06:34:01;;;;;;;6.50;2.90;;;19.70;99.90;;;;;;5039560;28;20168;-78
2023/08/15 06:36:27;;;;;;;7.40;2.40;;;19.70;99.90;;;;;;5038378;28;20226;-78
2023/08/15 06:38:52;;;;;;;6.20;2.50;;;19.50;99.90;;;;;;5039239;28;20176;-77
2023/08/15 06:41:18;;;;;;;8.17;2.60;;;19.60;99.90;;;;;;5037839;28;20196;-78
2023/08/15 06:43:44;;;;;;;5.73;2.30;;;19.60;99.90;;;;;;5039030;28;20169;-80
2023/08/15 06:46:13;;;;;;;5.40;2.20;;;19.50;99.90;;;;;;5042396;28;20172;-79
2023/08/15 06:48:39;;;;;;;5.37;2.97;;;19.50;99.90;;;;;;5040504;28;20180;-79
2023/08/15 06:51:05;;;;;;;10.90;3.10;;;19.60;99.90;;;;;;5042517;28;20220;-78
2023/08/15 06:53:31;;;;;;;7.57;2.80;;;19.40;99.90;;;;;;5042768;28;20215;-78
2023/08/15 06:55:56;;;;;;;8.90;3.00;;;19.60;99.90;;;;;;5041345;28;20291;-79
2023/08/15 06:58:22;;;;;;;6.07;3.07;;;19.60;99.90;;;;;;5042489;28;20192;-79
2023/08/15 07:00:48;;;;;;;8.70;2.97;;;19.60;99.90;;;;;;5044296;28;20331;-79
2023/08/15 07:03:15;;;;;;;10.27;2.67;;;19.60;99.90;;;;;;5045703;28;20350;-79
2023/08/15 07:05:41;;;;;;;8.90;3.23;;;19.50;99.90;;;;;;5045967;28;20239;-79
2023/08/15 07:08:07;;;;;;;8.30;2.70;;;19.50;99.90;;;;;;5045022;28;20176;-79
2023/08/15 07:10:35;;;;;;;8.40;3.20;;;19.60;99.90;;;;;;5045687;28;20196;-79
2023/08/15 07:13:01;;;;;;;3.97;2.53;;;19.60;99.90;;;;;;5044992;28;20172;-79
2023/08/15 07:15:28;;;;;;;10.27;2.97;;;19.70;99.90;;;;;;5046992;28;20192;-79
2023/08/15 07:17:54;;;;;;;8.10;3.40;;;19.80;99.90;;;;;;5044635;28;20636;-79
2023/08/15 07:20:20;;;;;;;7.93;3.40;;;19.80;99.90;;;;;;5045129;28;20180;-80
2023/08/15 07:22:46;;;;;;;12.67;3.33;;;19.90;99.90;;;;;;5047154;28;20238;-79
2023/08/15 07:25:12;;;;;;;10.47;3.43;;;19.90;99.90;;;;;;5046290;28;20184;-79
2023/08/15 07:27:38;;;;;;;7.70;3.30;;;19.90;99.90;;;;;;5048138;28;20183;-80
2023/08/15 07:30:05;;;;;;;7.27;2.97;;;19.90;99.90;;;;;;5055688;28;20195;-80
2023/08/15 07:32:34;;;;;;;6.27;2.80;;;20.00;99.90;;;;;;5060662;28;20192;-80
2023/08/15 07:35:00;;;;;;;6.73;3.33;;;20.00;99.90;;;;;;5065312;28;20196;-81
2023/08/15 07:37:26;;;;;;;9.70;3.53;;;19.90;99.90;;;;;;5068663;28;20260;-80
2023/08/15 07:40:06;;;;;;;6.47;3.30;;;19.90;99.90;;;;;;5073194;28;20172;-79
2023/08/15 07:42:32;;;;;;;8.10;3.10;;;20.20;99.90;;;;;;5073340;28;20214;-79
2023/08/15 07:44:58;;;;;;;4.77;2.90;;;20.10;99.90;;;;;;5063992;28;20175;-80
2023/08/15 07:47:24;;;;;;;6.43;2.97;;;20.20;99.90;;;;;;5063978;28;20180;-79
2023/08/15 07:50:10;;;;;;;7.43;2.47;;;20.10;99.90;;;;;;5064213;28;20248;-80
2023/08/15 07:52:35;;;;;;;7.10;2.50;;;20.10;99.90;;;;;;5065023;28;20199;-79
2023/08/15 07:55:01;;;;;;;7.83;2.63;;;20.00;99.90;;;;;;5064701;28;20556;-79
2023/08/15 07:57:27;;;;;;;6.70;2.87;;;20.10;99.90;;;;;;5063038;28;20182;-79
2023/08/15 07:59:53;;;;;;;7.97;2.47;;;20.20;99.90;;;;;;5063218;28;20206;-79
2023/08/15 08:02:18;;;;;;;10.67;3.60;;;20.10;99.90;;;;;;5067316;28;20290;-79
2023/08/15 08:04:44;;;;;;;5.93;2.63;;;20.00;99.90;;;;;;5064888;28;20172;-80
2023/08/15 08:07:10;;;;;;;8.47;3.17;;;20.30;99.90;;;;;;5063581;28;20179;-79
2023/08/15 08:09:36;;;;;;;7.93;2.77;;;20.20;99.90;;;;;;5064211;28;20176;-79
2023/08/15 08:12:02;;;;;;;8.23;2.60;;;20.20;99.90;;;;;;5062480;28;20199;-78
2023/08/15 08:14:27;;;;;;;8.63;2.80;;;20.20;99.90;;;;;;5061615;28;20187;-78
2023/08/15 08:16:53;;;;;;;6.87;2.70;;;20.30;99.90;;;;;;5060364;28;20651;-78
2023/08/15 08:19:18;;;;;;;6.40;2.30;;;20.30;99.90;;;;;;5061306;28;20178;-78
2023/08/15 08:21:44;;;;;;;7.63;2.40;;;20.30;99.90;;;;;;5060581;28;20278;-78
2023/08/15 08:24:09;;;;;;;7.63;2.20;;;20.40;99.90;;;;;;5061597;28;20606;-78
2023/08/15 08:26:35;;;;;;;14.07;2.60;;;20.50;99.90;;;;;;5061309;28;20182;-79
2023/08/15 08:29:00;;;;;;;6.53;2.07;;;20.60;99.90;;;;;;5063036;28;20191;-79
2023/08/15 08:31:26;;;;;;;6.50;2.13;;;20.70;99.90;;;;;;5062488;28;20241;-79
2023/08/15 08:33:52;;;;;;;7.00;2.00;;;20.80;99.90;;;;;;5061743;28;20209;-79
2023/08/15 08:36:17;;;;;;;5.37;1.63;;;20.80;99.90;;;;;;5062030;28;20203;-79
2023/08/15 08:38:43;;;;;;;6.57;1.90;;;20.80;99.90;;;;;;5063678;28;20182;-79
2023/08/15 08:41:09;;;;;;;6.90;2.20;;;20.90;99.90;;;;;;5060565;28;20195;-79
2023/08/15 08:43:35;;;;;;;3.80;1.90;;;20.90;99.90;;;;;;5060805;28;20175;-80
2023/08/15 08:46:04;;;;;;;5.33;1.70;;;20.90;99.90;;;;;;5064819;28;20179;-79
2023/08/15 08:48:31;;;;;;;5.60;1.80;;;21.00;99.90;;;;;;5060827;28;20183;-79
2023/08/15 08:50:57;;;;;;;5.20;1.50;;;21.00;99.90;;;;;;5062053;28;20486;-80
2023/08/15 08:53:23;;;;;;;6.00;1.80;;;21.00;99.90;;;;;;5062276;28;20175;-79
2023/08/15 08:55:50;;;;;;;2.67;1.10;;;21.10;99.90;;;;;;5058198;28;20746;-79
2023/08/15 08:58:16;;;;;;;3.00;1.10;;;21.00;99.90;;;;;;5062767;28;20330;-79
2023/08/15 09:00:42;;;;;;;2.77;1.07;;;21.20;99.90;;;;;;5061546;28;20646;-79
2023/08/15 09:03:09;;;;;;;3.10;1.20;;;21.40;99.90;;;;;;5062703;28;20179;-79
2023/08/15 09:05:35;;;;;;;1.30;0.80;;;21.30;99.90;;;;;;5059188;28;20586;-79
2023/08/15 09:08:02;;;;;;;2.70;1.20;;;21.40;99.90;;;;;;5060481;28;20190;-80
2023/08/15 09:10:28;;;;;;;4.47;1.30;;;21.30;99.90;;;;;;5058247;28;20199;-79
2023/08/15 09:12:59;;;;;;;5.23;1.20;;;21.30;99.90;;;;;;5061280;28;20174;-79
2023/08/15 09:15:24;;;;;;;3.23;1.23;;;21.40;99.90;;;;;;5060342;28;20207;-78
2023/08/15 09:18:00;;;;;;;3.93;1.40;;;21.60;99.90;;;;;;5061023;28;20186;-79
2023/08/15 09:20:26;;;;;;;4.47;1.80;;;21.50;99.90;;;;;;5058460;28;20163;-79
2023/08/15 09:22:58;;;;;;;3.83;1.40;;;21.70;99.90;;;;;;5059553;28;20206;-79
2023/08/15 09:25:26;;;;;;;3.80;1.40;;;21.60;99.90;;;;;;5052165;28;20214;-79
2023/08/15 09:27:53;;;;;;;4.13;1.53;;;21.70;99.90;;;;;;5041595;28;20184;-79
2023/08/15 09:30:19;;;;;;;3.27;1.20;;;21.70;99.90;;;;;;5038527;28;20198;-79
2023/08/15 09:32:46;;;;;;;3.87;1.50;;;21.50;99.90;;;;;;5038774;28;20191;-79
2023/08/15 09:35:13;;;;;;;6.53;1.60;;;21.70;99.90;;;;;;5048743;28;20337;-79
2023/08/15 09:37:46;;;;;;;3.97;1.70;;;21.80;99.90;;;;;;5062257;28;20171;-79
2023/08/15 09:40:24;;;;;;;4.53;1.53;;;22.00;99.90;;;;;;5059194;28;20187;-81
2023/08/15 09:42:50;;;;;;;2.77;1.33;;;21.90;99.90;;;;;;5058294;28;20174;-80
2023/08/15 09:45:16;;;;;;;5.33;1.87;;;21.90;99.90;;;;;;5059826;28;20195;-79
2023/08/15 09:47:43;;;;;;;3.87;1.23;;;22.00;99.90;;;;;;5060743;28;20290;-80
2023/08/15 09:50:11;;;;;;;4.67;1.40;;;22.00;99.90;;;;;;5059979;28;20279;-79
2023/08/15 09:52:46;;;;;;;6.70;1.50;;;22.00;99.90;;;;;;5061410;28;20180;-79
2023/08/15 09:55:14;;;;;;;5.77;1.80;;;22.00;99.90;;;;;;5059332;28;20217;-79
2023/08/15 09:57:43;;;;;;;6.03;1.40;;;22.30;99.90;;;;;;5061858;28;20179;-80
2023/08/15 10:00:17;;;;;;;4.93;1.50;;;22.30;99.90;;;;;;5060358;28;20203;-79
2023/08/15 10:02:52;;;;;;;3.63;1.60;;;22.20;99.90;;;;;;5057049;28;20535;-80
2023/08/15 10:05:21;;;;;;;3.23;1.77;;;22.30;99.90;;;;;;5054564;28;20183;-80
2023/08/15 10:07:47;;;;;;;4.77;1.73;;;22.40;99.90;;;;;;5058519;28;20180;-79
2023/08/15 10:10:13;;;;;;;4.63;1.67;;;22.40;99.90;;;;;;5058075;28;20178;-80
2023/08/15 10:12:40;;;;;;;2.80;1.30;;;22.50;99.90;;;;;;5057582;28;20178;-79
2023/08/15 10:15:07;;;;;;;2.73;1.30;;;22.40;99.90;;;;;;5051578;28;20271;-79
2023/08/15 10:17:33;;;;;;;2.87;1.20;;;22.60;1.00;;;;;;5039536;28;20632;-79
2023/08/15 10:20:10;;;;;;;5.73;1.90;;;22.70;1.00;;;;;;5036248;28;20179;-79
2023/08/15 10:22:37;;;;;;;2.77;1.43;;;22.70;1.00;;;;;;5036625;28;20256;-79
2023/08/15 10:25:28;;;;;;;2.17;1.30;;;22.80;1.00;;;;;;5042605;28;20185;-79
2023/08/15 10:27:55;;;;;;;3.20;1.50;;;22.90;1.00;;;;;;5039998;28;20541;-79
2023/08/15 10:30:33;;;;;;;4.17;1.50;;;23.00;1.00;;;;;;5039056;28;20655;-79
2023/08/15 10:33:01;;;;;;;3.60;1.50;;;23.00;1.00;;;;;;5039975;28;20180;-79
2023/08/15 10:35:27;;;;;;;5.27;1.80;;;23.10;1.00;;;;;;5050933;28;20200;-78
2023/08/15 10:37:55;;;;;;;2.73;1.30;;;23.10;1.00;;;;;;5043560;28;20168;-80
2023/08/15 10:40:21;;;;;;;4.80;1.60;;;23.20;1.00;;;;;;5044181;28;20167;-79
2023/08/15 10:43:02;;;;;;;3.63;1.53;;;23.10;1.00;;;;;;5059629;28;20561;-79
2023/08/15 10:45:31;;;;;;;3.37;1.57;;;23.30;1.00;;;;;;5061329;28;20181;-80
2023/08/15 10:47:57;;;;;;;4.87;1.53;;;23.30;1.00;;;;;;5063960;28;20632;-79
2023/08/15 10:50:23;;;;;;;3.87;1.57;;;23.40;1.00;;;;;;5062717;28;20179;-79
2023/08/15 10:53:05;;;;;;;5.17;1.77;;;23.40;1.00;;;;;;5043545;28;20196;-79
2023/08/15 10:55:34;;;;;;;5.90;1.67;;;23.50;1.00;;;;;;5059488;28;20200;-79
2023/08/15 10:58:04;;;;;;;8.43;2.17;;;23.50;1.00;;;;;;5043713;28;20238;-79
2023/08/15 11:00:30;;;;;;;5.88;1.92;;;23.60;1.00;;;;;;5041648;28;20180;-79
2023/08/15 11:02:57;;;;;;;5.00;1.80;;;23.60;1.00;;;;;;5049213;28;20188;-79
2023/08/15 11:05:22;;;;;;;4.80;1.73;;;23.70;99.90;;;;;;5062178;28;20183;-78
2023/08/15 11:07:48;;;;;;;5.07;1.50;;;23.70;99.90;;;;;;5065035;28;20238;-79
2023/08/15 11:10:14;;;;;;;5.77;1.90;;;23.70;1.00;;;;;;5061380;28;20610;-79
2023/08/15 11:12:50;;;;;;;3.93;1.60;;;23.90;1.00;;;;;;5045311;28;20283;-78
2023/08/15 11:15:16;;;;;;;4.43;1.70;;;23.90;1.00;;;;;;5041604;28;20196;-78
2023/08/15 11:17:47;;;;;;;4.73;1.60;;;23.90;1.00;;;;;;5043770;28;20204;-79
2023/08/15 11:20:13;;;;;;;5.00;1.80;;;23.90;1.00;;;;;;5042514;28;20180;-79
2023/08/15 11:22:40;;;;;;;7.60;1.93;;;24.00;1.00;;;;;;5057735;28;20222;-79
2023/08/15 11:25:08;;;;;;;4.83;1.63;;;24.00;1.00;;;;;;5064202;28;20172;-79
2023/08/15 11:27:41;;;;;;;5.40;1.70;;;24.00;1.00;;;;;;5064065;28;20178;-79
2023/08/15 11:30:08;;;;;;;8.47;1.80;;;23.90;1.00;;;;;;5062209;28;20206;-79
2023/08/15 11:32:38;;;;;;;4.17;1.70;;;24.00;99.90;;;;;;5060536;28;20703;-79
2023/08/15 11:35:04;;;;;;;6.23;1.47;;;24.00;99.90;;;;;;5057616;28;20204;-79
2023/08/15 11:37:30;;;;;;;6.40;1.70;;;24.00;99.90;;;;;;5045697;28;20306;-80
2023/08/15 11:39:56;;;;;;;5.67;1.60;;;24.20;99.90;;;;;;5043443;28;20211;-79
2023/08/15 11:42:22;;;;;;;9.63;2.10;;;24.20;99.90;;;;;;5045743;28;20204;-80
2023/08/15 11:44:59;;;;;;;3.80;1.77;;;24.20;99.90;;;;;;5046846;28;20203;-79
2023/08/15 11:47:25;;;;;;;3.90;1.57;;;24.30;99.90;;;;;;5044378;28;20195;-79
2023/08/15 11:49:50;;;;;;;8.10;1.85;;;24.40;1.00;;;;;;5042624;28;20215;-79
2023/08/15 11:52:17;;;;;;;4.40;2.03;;;24.70;99.90;;;;;;5047256;28;20215;-79
2023/08/15 11:54:46;;;;;;;5.15;2.10;;;24.60;99.90;;;;;;5046438;28;20251;-79
2023/08/15 11:57:11;;;;;;;6.03;1.77;;;24.70;99.90;;;;;;5059275;28;20184;-78
2023/08/15 11:59:37;;;;;;;3.77;2.00;;;24.70;99.90;;;;;;5051880;28;20251;-78
2023/08/15 12:02:03;;;;;;;2.87;1.70;;;24.60;99.90;;;;;;5045689;28;20561;-78
2023/08/15 12:04:34;;;;;;;9.20;2.30;;;24.80;99.90;;;;;;5042884;28;20184;-78
2023/08/15 12:06:59;;;;;;;5.82;2.85;;;24.90;99.90;;;;;;5045248;28;20207;-79
2023/08/15 12:09:29;;;;;;;6.57;2.55;;;24.90;99.90;;;;;;5045181;28;20172;-79
2023/08/15 12:11:54;;;;;;;5.80;3.03;;;24.90;99.90;;;;;;5041507;28;20220;-79
2023/08/15 12:14:21;;;;;;;5.72;1.65;;;25.00;99.90;;;;;;5041777;28;20180;-79
2023/08/15 12:16:47;;;;;;;3.58;1.75;;;25.00;99.90;;;;;;5042356;28;20231;-78
2023/08/15 12:19:13;;;;;;;3.75;1.80;;;25.10;99.90;;;;;;5041562;28;20176;-79
2023/08/15 12:21:39;;;;;;;6.72;1.98;;;25.20;99.90;;;;;;5042093;28;20192;-78
2023/08/15 12:24:05;;;;;;;7.78;2.08;;;25.20;99.90;;;;;;5041603;28;20658;-79
2023/08/15 12:26:30;;;;;;;4.82;1.92;;;25.20;99.90;;;;;;5040663;28;20607;-79
2023/08/15 12:28:56;;;;;;;4.53;1.77;;;25.10;99.90;;;;;;5058166;28;20188;-79
2023/08/15 12:31:21;;;;;;;5.95;1.70;;;25.20;99.90;;;;;;5041281;28;20313;-79
2023/08/15 12:33:47;;;;;;;6.40;1.80;;;25.30;99.90;;;;;;5044254;28;20172;-79
2023/08/15 12:36:13;;;;;;;6.68;1.80;;;25.40;99.90;;;;;;5041327;28;20361;-79
2023/08/15 12:38:38;;;;;;;6.73;2.27;;;25.50;99.90;;;;;;5041708;28;20176;-78
2023/08/15 12:41:05;;;;;;;5.93;1.75;;;25.60;99.90;;;;;;5042700;28;20214;-79
2023/08/15 12:43:30;;;;;;;4.60;1.98;;;25.50;99.90;;;;;;5041098;28;20173;-79
2023/08/15 12:45:56;;;;;;;3.00;1.90;;;25.70;99.90;;;;;;5040851;28;20187;-79